Alexander 3 — SW6137 — position and weather

sailwx.info

Track history (hours):
 
Tides and Currents Weather Stations Pressure Air Temp Water Temp Dewpoint Dewpoint Depression Visibility Wind Speed Wind Dir Waves Ship Positions

Alexander 3

Last reported at 2014-Nov-01 05:33 UTC. Time now 2014-Nov-01 06:50 UTC.
Position N 37°58' E 023°34'.

Length 38 m; draft 5.6 m.

Type: Tug. MMSI: 240733000.

Date/timePositionNaut miles runAvg speedWind from/ knotsBaromVisibWave heightAir tempDewpointWater temp
2014-Nov-01 05:33N 37°58' E 023°34'3 3.2
2014-Nov-01 04:33N 37°56' E 023°37'0 0.0
2014-Oct-31 11:34N 37°56' E 023°37'0 0.1
2014-Oct-31 10:33N 37°56' E 023°37'0 0.0
2014-Oct-31 09:34N 37°56' E 023°37'0 0.0
2014-Oct-31 08:34N 37°56' E 023°37'0 0.0
2014-Oct-31 07:34N 37°56' E 023°37'0 0.0
2014-Oct-31 06:34N 37°56' E 023°37'2 2.2
2014-Oct-31 05:34N 37°57' E 023°35'1 0.9
2014-Oct-31 04:34N 37°57' E 023°36'0 0.0
2014-Oct-31 03:34N 37°57' E 023°36'0 0.0
2014-Oct-31 02:34N 37°57' E 023°36'0 0.0
2014-Oct-31 01:34N 37°57' E 023°36'0 0.0
2014-Oct-31 00:34N 37°57' E 023°36'0 0.0
2014-Oct-30 23:34N 37°57' E 023°36'0 0.0
2014-Oct-30 22:34N 37°57' E 023°36'1 0.8
2014-Oct-30 21:33N 37°57' E 023°35'1 0.7
2014-Oct-30 20:34N 37°57' E 023°36'0 0.0
2014-Oct-30 19:34N 37°57' E 023°36'0 0.0
2014-Oct-30 18:34N 37°57' E 023°36'0 0.0
2014-Oct-30 17:34N 37°57' E 023°36'0 0.0
2014-Oct-30 16:33N 37°57' E 023°36'0 0.0
2014-Oct-30 15:34N 37°57' E 023°36'0 0.0
2014-Oct-30 14:34N 37°57' E 023°36'0 0.0
2014-Oct-30 13:34N 37°57' E 023°36'1 1.1
2014-Oct-30 12:34N 37°56' E 023°36'1 0.7
2014-Oct-30 11:34N 37°56' E 023°37'0 0.0
2014-Oct-30 10:34N 37°56' E 023°37'0 0.0
2014-Oct-30 09:33N 37°56' E 023°37'0 0.0
2014-Oct-30 08:34N 37°56' E 023°37'0 0.0
2014-Oct-30 07:34N 37°56' E 023°37'0 0.0
2014-Oct-30 06:34N 37°56' E 023°37'0 0.0
2014-Oct-30 05:34N 37°56' E 023°37'0 0.0
2014-Oct-30 04:33N 37°56' E 023°37'1 0.0
2014-Oct-29 11:33N 37°57' E 023°37'1 0.8
2014-Oct-29 10:33N 37°57' E 023°36'0 0.0
2014-Oct-29 09:33N 37°57' E 023°36'0 0.0
2014-Oct-29 08:33N 37°57' E 023°36'0 0.1
2014-Oct-29 07:33N 37°57' E 023°36'1 1.0
2014-Oct-29 06:33N 37°56' E 023°36'1 0.7
2014-Oct-29 05:33N 37°57' E 023°35'2 1.8
2014-Oct-29 04:33N 37°56' E 023°37'0 0.0
2014-Oct-28 14:33N 37°56' E 023°37'8 8.4
2014-Oct-28 13:33N 37°52' E 023°28'7 7.2
2014-Oct-28 12:33N 37°58' E 023°23'0 0.2
2014-Oct-28 11:34N 37°58' E 023°23'2 2.2
2014-Oct-28 10:33N 37°58' E 023°26'6 5.9
2014-Oct-28 09:33N 37°59' E 023°33'3 3.4
2014-Oct-28 08:33N 37°57' E 023°36'0 0.0
2014-Oct-28 07:34N 37°57' E 023°36'0 0.0
2014-Oct-28 06:33N 37°57' E 023°36'1 0.8
2014-Oct-28 05:33N 37°57' E 023°35'2 2.0
2014-Oct-28 04:33N 37°56' E 023°37'0 0.0
2014-Oct-27 20:26N 37°56' E 023°37'2 2.2
2014-Oct-27 19:33N 37°57' E 023°35'1 1.5
2014-Oct-27 18:33N 37°56' E 023°36'2 1.7
2014-Oct-27 17:33N 37°57' E 023°36'0 0.0
2014-Oct-27 16:33N 37°57' E 023°36'0 0.0
2014-Oct-27 15:33N 37°57' E 023°36'0 0.0
2014-Oct-27 14:33N 37°57' E 023°36'0 0.0
2014-Oct-27 13:33N 37°57' E 023°36'0 0.0
2014-Oct-27 12:33N 37°57' E 023°36'0 0.0
2014-Oct-27 11:33N 37°57' E 023°36'2 1.9
2014-Oct-27 10:33N 37°58' E 023°34'4 4.0
2014-Oct-27 09:33N 38°00' E 023°30'6 6.2
2014-Oct-27 08:33N 37°58' E 023°23'4 3.7
2014-Oct-27 07:32N 37°54' E 023°23'6 6.5
2014-Oct-27 06:33N 37°53' E 023°31'6 6.0
2014-Oct-27 05:33N 37°57' E 023°36'0 0.0
2014-Oct-27 04:33N 37°57' E 023°36'0 0.0
2014-Oct-27 03:33N 37°57' E 023°36'0 0.0
2014-Oct-27 02:33N 37°57' E 023°36'0 0.0
2014-Oct-27 01:33N 37°57' E 023°36'0 0.0
2014-Oct-27 00:33N 37°57' E 023°36'0 0.0
2014-Oct-26 23:33N 37°57' E 023°36'0 0.0
2014-Oct-26 22:33N 37°57' E 023°36'0 0.0
2014-Oct-26 21:33N 37°57' E 023°36'2 1.9
2014-Oct-26 20:33N 37°56' E 023°35'1 1.3
2014-Oct-26 19:33N 37°57' E 023°35'1 0.8
2014-Oct-26 18:33N 37°57' E 023°36'0 0.0
2014-Oct-26 17:33N 37°57' E 023°36'0 0.0
2014-Oct-26 16:33N 37°57' E 023°36'0 0.0
2014-Oct-26 15:33N 37°57' E 023°36'0 0.0
2014-Oct-26 14:33N 37°57' E 023°36'1 0.8
2014-Oct-26 13:33N 37°57' E 023°36'1 0.8
2014-Oct-26 12:33N 37°57' E 023°36'0 0.0
2014-Oct-26 11:33N 37°57' E 023°36'0 0.0
2014-Oct-26 10:33N 37°57' E 023°36'0 0.0
2014-Oct-26 09:33N 37°57' E 023°36'0 0.0
2014-Oct-26 08:33N 37°57' E 023°36'0 0.0
2014-Oct-26 07:33N 37°57' E 023°36'0 0.0
2014-Oct-26 06:33N 37°57' E 023°36'1 0.8
2014-Oct-26 05:33N 37°57' E 023°36'1 1.2
2014-Oct-26 04:33N 37°56' E 023°37'0 0.0
2014-Oct-25 19:28N 37°56' E 023°37'2 2.4
2014-Oct-25 18:33N 37°56' E 023°35'1 1.4
2014-Oct-25 17:33N 37°57' E 023°36'1 0.8
2014-Oct-25 16:33N 37°57' E 023°37'0 0.0
2014-Oct-25 15:33N 37°57' E 023°37'1 0.7
2014-Oct-25 14:33N 37°57' E 023°36'1 0.7
2014-Oct-25 13:33N 37°57' E 023°37'0 0.0
2014-Oct-25 12:33N 37°57' E 023°37'0 0.0
2014-Oct-25 11:33N 37°57' E 023°37'0 0.0
2014-Oct-25 10:33N 37°57' E 023°37'0 0.0
2014-Oct-25 09:33N 37°57' E 023°37'0 0.0
2014-Oct-25 08:33N 37°57' E 023°37'0 0.0
2014-Oct-25 07:33N 37°57' E 023°37'3 2.9
2014-Oct-25 06:33N 37°58' E 023°33'6 6.3
2014-Oct-25 05:33N 37°59' E 023°25'2 2.2
2014-Oct-25 04:33N 37°58' E 023°23'1 1.1
2014-Oct-25 03:33N 37°58' E 023°24'0 0.0
2014-Oct-25 02:33N 37°58' E 023°24'0 0.0
2014-Oct-25 01:33N 37°58' E 023°24'0 0.0
2014-Oct-25 00:33N 37°58' E 023°24'0 0.0
2014-Oct-24 23:33N 37°58' E 023°24'0 0.0
2014-Oct-24 22:33N 37°58' E 023°24'0 0.0
2014-Oct-24 21:33N 37°58' E 023°24'0 0.0
2014-Oct-24 20:33N 37°58' E 023°24'0 0.0
2014-Oct-24 19:33N 37°58' E 023°24'0 0.0
2014-Oct-24 18:33N 37°58' E 023°24'0 0.0
2014-Oct-24 17:33N 37°58' E 023°24'0 0.0
2014-Oct-24 16:33N 37°58' E 023°24'0 0.0
2014-Oct-24 15:33N 37°58' E 023°24'0 0.0
2014-Oct-24 14:33N 37°58' E 023°24'0 0.0
2014-Oct-24 13:33N 37°58' E 023°24'0 0.0
2014-Oct-24 12:33N 37°58' E 023°24'0 0.0
2014-Oct-24 11:33N 37°58' E 023°24'0 0.0
2014-Oct-24 10:33N 37°58' E 023°24'0 0.0
2014-Oct-24 09:33N 37°58' E 023°24'0 0.0
2014-Oct-24 08:33N 37°58' E 023°24'0 0.0
2014-Oct-24 07:33N 37°58' E 023°24'0 0.0
2014-Oct-24 06:33N 37°58' E 023°24'0 0.0
2014-Oct-24 05:33N 37°58' E 023°24'0 0.0
2014-Oct-24 04:33N 37°58' E 023°24'0 0.0
2014-Oct-24 03:33N 37°58' E 023°24'0 0.0
2014-Oct-24 02:33N 37°58' E 023°24'0 0.0
2014-Oct-24 01:33N 37°58' E 023°24'0 0.0
2014-Oct-24 00:33N 37°58' E 023°24'0 0.0
2014-Oct-23 23:33N 37°58' E 023°24'0 0.0
2014-Oct-23 22:33N 37°58' E 023°24'0 0.0
2014-Oct-23 21:33N 37°58' E 023°24'0 0.0
2014-Oct-23 20:33N 37°58' E 023°24'0 0.0
2014-Oct-23 19:33N 37°58' E 023°24'0 0.0
2014-Oct-23 18:33N 37°58' E 023°24'0 0.0
2014-Oct-23 17:33N 37°58' E 023°24'0 0.0
2014-Oct-23 16:33N 37°58' E 023°24'0 0.0
2014-Oct-23 15:33N 37°58' E 023°24'0 0.0
2014-Oct-23 14:33N 37°58' E 023°24'0 0.0
2014-Oct-23 13:33N 37°58' E 023°24'0 0.0
2014-Oct-23 12:33N 37°58' E 023°24'0 0.0
2014-Oct-23 11:33N 37°58' E 023°24'1 1.2
2014-Oct-23 10:33N 37°58' E 023°23'0 0.4
2014-Oct-23 09:33N 37°58' E 023°23'1 1.1
2014-Oct-23 08:33N 37°58' E 023°24'4 4.1
2014-Oct-23 07:31N 38°01' E 023°29'7 7.5
2014-Oct-23 06:33N 37°56' E 023°36'1 1.0
2014-Oct-23 05:33N 37°56' E 023°37'0 0.0
2014-Oct-23 04:33N 37°56' E 023°37'0 0.0
2014-Oct-23 03:33N 37°56' E 023°37'1 0.1
2014-Oct-22 14:33N 37°57' E 023°36'1 0.7
2014-Oct-22 13:33N 37°57' E 023°35'0 0.2
2014-Oct-22 12:33N 37°57' E 023°35'0 0.2
2014-Oct-22 11:33N 37°57' E 023°35'0 0.0
2014-Oct-22 10:33N 37°57' E 023°35'1 1.0
2014-Oct-22 09:33N 37°57' E 023°36'0 0.0
2014-Oct-22 08:33N 37°57' E 023°36'0 0.0
2014-Oct-22 07:33N 37°57' E 023°36'0 0.0
2014-Oct-22 06:33N 37°57' E 023°36'  
Track history (hours):
 
Tides and Currents Weather Stations Pressure Air Temp Water Temp Dewpoint Dewpoint Depression Visibility Wind Speed Wind Dir Waves Ship Positions

Alexander 3

Last reported at 2014-Nov-01 05:33 UTC. Time now 2014-Nov-01 06:50 UTC.
Position N 37°58' E 023°34'.

Length 38 m; draft 5.6 m.

Type: Tug. MMSI: 240733000.

Date/timePositionNaut miles runAvg speedWind from/ knotsBaromVisibWave heightAir tempDewpointWater temp
2014-Nov-01 05:33N 37°58' E 023°34'3 3.2
2014-Nov-01 04:33N 37°56' E 023°37'0 0.0
2014-Oct-31 11:34N 37°56' E 023°37'0 0.1
2014-Oct-31 10:33N 37°56' E 023°37'0 0.0
2014-Oct-31 09:34N 37°56' E 023°37'0 0.0
2014-Oct-31 08:34N 37°56' E 023°37'0 0.0
2014-Oct-31 07:34N 37°56' E 023°37'0 0.0
2014-Oct-31 06:34N 37°56' E 023°37'2 2.2
2014-Oct-31 05:34N 37°57' E 023°35'1 0.9
2014-Oct-31 04:34N 37°57' E 023°36'0 0.0
2014-Oct-31 03:34N 37°57' E 023°36'0 0.0
2014-Oct-31 02:34N 37°57' E 023°36'0 0.0
2014-Oct-31 01:34N 37°57' E 023°36'0 0.0
2014-Oct-31 00:34N 37°57' E 023°36'0 0.0
2014-Oct-30 23:34N 37°57' E 023°36'0 0.0
2014-Oct-30 22:34N 37°57' E 023°36'1 0.8
2014-Oct-30 21:33N 37°57' E 023°35'1 0.7
2014-Oct-30 20:34N 37°57' E 023°36'0 0.0
2014-Oct-30 19:34N 37°57' E 023°36'0 0.0
2014-Oct-30 18:34N 37°57' E 023°36'0 0.0
2014-Oct-30 17:34N 37°57' E 023°36'0 0.0
2014-Oct-30 16:33N 37°57' E 023°36'0 0.0
2014-Oct-30 15:34N 37°57' E 023°36'0 0.0
2014-Oct-30 14:34N 37°57' E 023°36'0 0.0
2014-Oct-30 13:34N 37°57' E 023°36'1 1.1
2014-Oct-30 12:34N 37°56' E 023°36'1 0.7
2014-Oct-30 11:34N 37°56' E 023°37'0 0.0
2014-Oct-30 10:34N 37°56' E 023°37'0 0.0
2014-Oct-30 09:33N 37°56' E 023°37'0 0.0
2014-Oct-30 08:34N 37°56' E 023°37'0 0.0
2014-Oct-30 07:34N 37°56' E 023°37'0 0.0
2014-Oct-30 06:34N 37°56' E 023°37'0 0.0
2014-Oct-30 05:34N 37°56' E 023°37'0 0.0
2014-Oct-30 04:33N 37°56' E 023°37'1 0.0
2014-Oct-29 11:33N 37°57' E 023°37'1 0.8
2014-Oct-29 10:33N 37°57' E 023°36'0 0.0
2014-Oct-29 09:33N 37°57' E 023°36'0 0.0
2014-Oct-29 08:33N 37°57' E 023°36'0 0.1
2014-Oct-29 07:33N 37°57' E 023°36'1 1.0
2014-Oct-29 06:33N 37°56' E 023°36'1 0.7
2014-Oct-29 05:33N 37°57' E 023°35'2 1.8
2014-Oct-29 04:33N 37°56' E 023°37'0 0.0
2014-Oct-28 14:33N 37°56' E 023°37'8 8.4
2014-Oct-28 13:33N 37°52' E 023°28'7 7.2
2014-Oct-28 12:33N 37°58' E 023°23'0 0.2
2014-Oct-28 11:34N 37°58' E 023°23'2 2.2
2014-Oct-28 10:33N 37°58' E 023°26'6 5.9
2014-Oct-28 09:33N 37°59' E 023°33'3 3.4
2014-Oct-28 08:33N 37°57' E 023°36'0 0.0
2014-Oct-28 07:34N 37°57' E 023°36'0 0.0
2014-Oct-28 06:33N 37°57' E 023°36'1 0.8
2014-Oct-28 05:33N 37°57' E 023°35'2 2.0
2014-Oct-28 04:33N 37°56' E 023°37'0 0.0
2014-Oct-27 20:26N 37°56' E 023°37'2 2.2
2014-Oct-27 19:33N 37°57' E 023°35'1 1.5
2014-Oct-27 18:33N 37°56' E 023°36'2 1.7
2014-Oct-27 17:33N 37°57' E 023°36'0 0.0
2014-Oct-27 16:33N 37°57' E 023°36'0 0.0
2014-Oct-27 15:33N 37°57' E 023°36'0 0.0
2014-Oct-27 14:33N 37°57' E 023°36'0 0.0
2014-Oct-27 13:33N 37°57' E 023°36'0 0.0
2014-Oct-27 12:33N 37°57' E 023°36'0 0.0
2014-Oct-27 11:33N 37°57' E 023°36'2 1.9
2014-Oct-27 10:33N 37°58' E 023°34'4 4.0
2014-Oct-27 09:33N 38°00' E 023°30'6 6.2
2014-Oct-27 08:33N 37°58' E 023°23'4 3.7
2014-Oct-27 07:32N 37°54' E 023°23'6 6.5
2014-Oct-27 06:33N 37°53' E 023°31'6 6.0
2014-Oct-27 05:33N 37°57' E 023°36'0 0.0
2014-Oct-27 04:33N 37°57' E 023°36'0 0.0
2014-Oct-27 03:33N 37°57' E 023°36'0 0.0
2014-Oct-27 02:33N 37°57' E 023°36'0 0.0
2014-Oct-27 01:33N 37°57' E 023°36'0 0.0
2014-Oct-27 00:33N 37°57' E 023°36'0 0.0
2014-Oct-26 23:33N 37°57' E 023°36'0 0.0
2014-Oct-26 22:33N 37°57' E 023°36'0 0.0
2014-Oct-26 21:33N 37°57' E 023°36'2 1.9
2014-Oct-26 20:33N 37°56' E 023°35'1 1.3
2014-Oct-26 19:33N 37°57' E 023°35'1 0.8
2014-Oct-26 18:33N 37°57' E 023°36'0 0.0
2014-Oct-26 17:33N 37°57' E 023°36'0 0.0
2014-Oct-26 16:33N 37°57' E 023°36'0 0.0
2014-Oct-26 15:33N 37°57' E 023°36'0 0.0
2014-Oct-26 14:33N 37°57' E 023°36'1 0.8
2014-Oct-26 13:33N 37°57' E 023°36'1 0.8
2014-Oct-26 12:33N 37°57' E 023°36'0 0.0
2014-Oct-26 11:33N 37°57' E 023°36'0 0.0
2014-Oct-26 10:33N 37°57' E 023°36'0 0.0
2014-Oct-26 09:33N 37°57' E 023°36'0 0.0
2014-Oct-26 08:33N 37°57' E 023°36'0 0.0
2014-Oct-26 07:33N 37°57' E 023°36'0 0.0
2014-Oct-26 06:33N 37°57' E 023°36'1 0.8
2014-Oct-26 05:33N 37°57' E 023°36'1 1.2
2014-Oct-26 04:33N 37°56' E 023°37'0 0.0
2014-Oct-25 19:28N 37°56' E 023°37'2 2.4
2014-Oct-25 18:33N 37°56' E 023°35'1 1.4
2014-Oct-25 17:33N 37°57' E 023°36'1 0.8
2014-Oct-25 16:33N 37°57' E 023°37'0 0.0
2014-Oct-25 15:33N 37°57' E 023°37'1 0.7
2014-Oct-25 14:33N 37°57' E 023°36'1 0.7
2014-Oct-25 13:33N 37°57' E 023°37'0 0.0
2014-Oct-25 12:33N 37°57' E 023°37'0 0.0
2014-Oct-25 11:33N 37°57' E 023°37'0 0.0
2014-Oct-25 10:33N 37°57' E 023°37'0 0.0
2014-Oct-25 09:33N 37°57' E 023°37'0 0.0
2014-Oct-25 08:33N 37°57' E 023°37'0 0.0
2014-Oct-25 07:33N 37°57' E 023°37'3 2.9
2014-Oct-25 06:33N 37°58' E 023°33'6 6.3
2014-Oct-25 05:33N 37°59' E 023°25'2 2.2
2014-Oct-25 04:33N 37°58' E 023°23'1 1.1
2014-Oct-25 03:33N 37°58' E 023°24'0 0.0
2014-Oct-25 02:33N 37°58' E 023°24'0 0.0
2014-Oct-25 01:33N 37°58' E 023°24'0 0.0
2014-Oct-25 00:33N 37°58' E 023°24'0 0.0
2014-Oct-24 23:33N 37°58' E 023°24'0 0.0
2014-Oct-24 22:33N 37°58' E 023°24'0 0.0
2014-Oct-24 21:33N 37°58' E 023°24'0 0.0
2014-Oct-24 20:33N 37°58' E 023°24'0 0.0
2014-Oct-24 19:33N 37°58' E 023°24'0 0.0
2014-Oct-24 18:33N 37°58' E 023°24'0 0.0
2014-Oct-24 17:33N 37°58' E 023°24'0 0.0
2014-Oct-24 16:33N 37°58' E 023°24'0 0.0
2014-Oct-24 15:33N 37°58' E 023°24'0 0.0
2014-Oct-24 14:33N 37°58' E 023°24'0 0.0
2014-Oct-24 13:33N 37°58' E 023°24'0 0.0
2014-Oct-24 12:33N 37°58' E 023°24'0 0.0
2014-Oct-24 11:33N 37°58' E 023°24'0 0.0
2014-Oct-24 10:33N 37°58' E 023°24'0 0.0
2014-Oct-24 09:33N 37°58' E 023°24'0 0.0
2014-Oct-24 08:33N 37°58' E 023°24'0 0.0
2014-Oct-24 07:33N 37°58' E 023°24'0 0.0
2014-Oct-24 06:33N 37°58' E 023°24'0 0.0
2014-Oct-24 05:33N 37°58' E 023°24'0 0.0
2014-Oct-24 04:33N 37°58' E 023°24'0 0.0
2014-Oct-24 03:33N 37°58' E 023°24'0 0.0
2014-Oct-24 02:33N 37°58' E 023°24'0 0.0
2014-Oct-24 01:33N 37°58' E 023°24'0 0.0
2014-Oct-24 00:33N 37°58' E 023°24'0 0.0
2014-Oct-23 23:33N 37°58' E 023°24'0 0.0
2014-Oct-23 22:33N 37°58' E 023°24'0 0.0
2014-Oct-23 21:33N 37°58' E 023°24'0 0.0
2014-Oct-23 20:33N 37°58' E 023°24'0 0.0
2014-Oct-23 19:33N 37°58' E 023°24'0 0.0
2014-Oct-23 18:33N 37°58' E 023°24'0 0.0
2014-Oct-23 17:33N 37°58' E 023°24'0 0.0
2014-Oct-23 16:33N 37°58' E 023°24'0 0.0
2014-Oct-23 15:33N 37°58' E 023°24'0 0.0
2014-Oct-23 14:33N 37°58' E 023°24'0 0.0
2014-Oct-23 13:33N 37°58' E 023°24'0 0.0
2014-Oct-23 12:33N 37°58' E 023°24'0 0.0
2014-Oct-23 11:33N 37°58' E 023°24'1 1.2
2014-Oct-23 10:33N 37°58' E 023°23'0 0.4
2014-Oct-23 09:33N 37°58' E 023°23'1 1.1
2014-Oct-23 08:33N 37°58' E 023°24'4 4.1
2014-Oct-23 07:31N 38°01' E 023°29'7 7.5
2014-Oct-23 06:33N 37°56' E 023°36'1 1.0
2014-Oct-23 05:33N 37°56' E 023°37'0 0.0
2014-Oct-23 04:33N 37°56' E 023°37'0 0.0
2014-Oct-23 03:33N 37°56' E 023°37'1 0.1
2014-Oct-22 14:33N 37°57' E 023°36'1 0.7
2014-Oct-22 13:33N 37°57' E 023°35'0 0.2
2014-Oct-22 12:33N 37°57' E 023°35'0 0.2
2014-Oct-22 11:33N 37°57' E 023°35'0 0.0
2014-Oct-22 10:33N 37°57' E 023°35'1 1.0
2014-Oct-22 09:33N 37°57' E 023°36'0 0.0
2014-Oct-22 08:33N 37°57' E 023°36'0 0.0
2014-Oct-22 07:33N 37°57' E 023°36'0 0.0
2014-Oct-22 06:33N 37°57' E 023°36'  

Dump ship's entire track history